Andrea — WDF2417 — position and weather

sailwx.info

Track history (hours):
 
Tides and Currents Weather Stations Pressure Air Temp Water Temp Dewpoint Dewpoint Depression Visibility Wind Speed Wind Dir Waves Ship Positions

Andrea

Owner: Enterprise Marine Services, LLC, San Antonio, TX. More information available from US FCC via Universal Licensing System and Coast Guard Vessel Documentation Center.

Last reported at 2018-Mar-14 16:21 UTC. Time now 2018-May-27 03:04 UTC.
Position N 40°40' W 074°00'.
Warning: this ship's position is months out of date.

; draft 4 m.

Type: Towing. MMSI: 367003310.

Date/timePositionNaut miles runAvg speedWind from/ knotsBaromVisibWave heightAir tempDewpointWater temp
2018-Mar-14 16:21N 40°40' W 074°00'0 0.0
2018-Mar-14 16:00N 40°40' W 074°00'0 0.0
2018-Mar-14 15:30N 40°40' W 074°00'0 0.0
2018-Mar-14 15:00N 40°40' W 074°00'0 0.0
2018-Mar-14 14:30N 40°40' W 074°00'0 0.0
2018-Mar-14 14:00N 40°40' W 074°00'0 0.0
2018-Mar-14 13:30N 40°40' W 074°00'0 0.0
2018-Mar-14 13:00N 40°40' W 074°00'0 0.0
2018-Mar-14 12:30N 40°40' W 074°00'0 0.0
2018-Mar-14 12:01N 40°40' W 074°00'5 9.0
2018-Mar-14 11:28N 40°39' W 074°06'1 2.5
2018-Mar-14 11:00N 40°39' W 074°05'2 4.7
2018-Mar-14 10:30N 40°41' W 074°03'0 0.1
2018-Mar-14 10:00N 40°41' W 074°03'0 0.0
2018-Mar-14 09:30N 40°41' W 074°03'0 0.0
2018-Mar-14 09:00N 40°41' W 074°03'0 0.1
2018-Mar-14 08:30N 40°41' W 074°03'0 0.1
2018-Mar-14 08:00N 40°41' W 074°03'0 0.0
2018-Mar-14 07:30N 40°41' W 074°03'0 0.0
2018-Mar-14 07:00N 40°41' W 074°03'0 0.0
2018-Mar-14 06:30N 40°41' W 074°03'0 0.0
2018-Mar-14 06:00N 40°41' W 074°03'0 0.0
2018-Mar-14 05:30N 40°41' W 074°03'0 0.0
2018-Mar-14 05:00N 40°41' W 074°03'0 0.0
2018-Mar-14 04:30N 40°41' W 074°03'0 0.0
2018-Mar-14 04:00N 40°41' W 074°03'0 0.0
2018-Mar-14 03:30N 40°41' W 074°03'0 0.0
2018-Mar-14 03:00N 40°41' W 074°03'0 0.0
2018-Mar-14 02:30N 40°41' W 074°03'0 0.0
2018-Mar-14 02:00N 40°41' W 074°03'0 0.0
2018-Mar-14 01:30N 40°41' W 074°03'0 0.1
2018-Mar-14 01:00N 40°41' W 074°03'0 0.1
2018-Mar-14 00:30N 40°41' W 074°03'0 0.0
2018-Mar-14 00:01N 40°41' W 074°03'2 4.4
2018-Mar-13 23:30N 40°40' W 074°00'1 2.2
2018-Mar-13 23:00N 40°39' W 074°01'3 6.1
2018-Mar-13 22:30N 40°39' W 074°05'1 1.6
2018-Mar-13 22:00N 40°39' W 074°06'0 0.0
2018-Mar-13 21:30N 40°39' W 074°06'3 5.8
2018-Mar-13 21:00N 40°39' W 074°03'2 4.4
2018-Mar-13 20:30N 40°40' W 074°00'0 0.1
2018-Mar-13 20:00N 40°40' W 074°00'0 0.1
2018-Mar-13 19:30N 40°40' W 074°00'0 0.3
2018-Mar-13 19:01N 40°40' W 074°00'0 0.4
2018-Mar-13 18:30N 40°40' W 074°00'0 0.1
2018-Mar-13 18:00N 40°40' W 074°00'0 0.0
2018-Mar-13 17:30N 40°40' W 074°00'0 0.0
2018-Mar-13 17:00N 40°40' W 074°00'0 0.0
2018-Mar-13 16:30N 40°40' W 074°00'0 0.0
2018-Mar-13 16:00N 40°40' W 074°00'0 0.0
2018-Mar-13 15:29N 40°40' W 074°00'0 0.0
2018-Mar-13 15:00N 40°40' W 074°00'0 0.0
2018-Mar-13 14:29N 40°40' W 074°00'0 0.0
2018-Mar-13 14:00N 40°40' W 074°00'0 0.0
2018-Mar-13 13:30N 40°40' W 074°00'0 0.0
2018-Mar-13 13:00N 40°40' W 074°00'0 0.0
2018-Mar-13 12:30N 40°40' W 074°00'0 0.0
2018-Mar-13 12:00N 40°40' W 074°00'0 0.0
2018-Mar-13 11:30N 40°40' W 074°00'0 0.0
2018-Mar-13 11:00N 40°40' W 074°00'0 0.0
2018-Mar-13 10:30N 40°40' W 074°00'0 0.0
2018-Mar-13 10:00N 40°40' W 074°00'0 0.0
2018-Mar-13 09:30N 40°40' W 074°00'0 0.0
2018-Mar-13 09:00N 40°40' W 074°00'0 0.0
2018-Mar-13 08:30N 40°40' W 074°00'0 0.0
2018-Mar-13 08:00N 40°40' W 074°00'0 0.0
2018-Mar-13 07:30N 40°40' W 074°00'0 0.0
2018-Mar-13 07:00N 40°40' W 074°00'0 0.0
2018-Mar-13 06:30N 40°40' W 074°00'0 0.0
2018-Mar-13 06:00N 40°40' W 074°00'0 0.0
2018-Mar-13 05:30N 40°40' W 074°00'0 0.0
2018-Mar-13 05:00N 40°40' W 074°00'0 0.0
2018-Mar-13 04:30N 40°40' W 074°00'0 0.0
2018-Mar-13 03:59N 40°40' W 074°00'0 0.6
2018-Mar-13 03:30N 40°40' W 074°00'4 7.2
2018-Mar-13 03:00N 40°39' W 074°05'3 6.8
2018-Mar-13 02:30N 40°38' W 074°10'0 0.9
2018-Mar-13 02:00N 40°39' W 074°09'4 7.7
2018-Mar-13 01:30N 40°42' W 074°07'0 0.0
2018-Mar-13 01:00N 40°42' W 074°07'0 0.0
2018-Mar-13 00:30N 40°42' W 074°07'0 0.0
2018-Mar-13 00:00N 40°42' W 074°07'0 0.0
2018-Mar-12 23:30N 40°42' W 074°07'0 0.0
2018-Mar-12 23:00N 40°42' W 074°07'4 7.7
2018-Mar-12 22:30N 40°39' W 074°09'1 1.2
2018-Mar-12 22:00N 40°38' W 074°10'0 0.0
2018-Mar-12 21:30N 40°38' W 074°10'0 0.0
2018-Mar-12 20:59N 40°38' W 074°10'0 0.0
2018-Mar-12 20:27N 40°38' W 074°10'0 0.0
2018-Mar-12 20:00N 40°38' W 074°10'0 0.0
2018-Mar-12 19:30N 40°38' W 074°10'0 0.0
2018-Mar-12 19:00N 40°38' W 074°10'0 0.0
2018-Mar-12 18:29N 40°38' W 074°10'0 0.0
2018-Mar-12 18:00N 40°38' W 074°10'1 2.6
2018-Mar-12 17:30N 40°39' W 074°08'3 6.1
2018-Mar-12 17:00N 40°38' W 074°04'0 0.0
2018-Mar-12 16:30N 40°38' W 074°04'0 0.0
2018-Mar-12 16:00N 40°38' W 074°04'0 0.0
2018-Mar-12 15:30N 40°38' W 074°04'0 0.0
2018-Mar-12 15:00N 40°38' W 074°04'0 0.0
2018-Mar-12 14:30N 40°38' W 074°04'0 0.0
2018-Mar-12 14:00N 40°38' W 074°04'1 2.4
2018-Mar-12 13:30N 40°39' W 074°02'2 4.2
2018-Mar-12 13:00N 40°40' W 074°00'0 0.0
2018-Mar-12 12:30N 40°40' W 074°00'0 0.0
2018-Mar-12 12:00N 40°40' W 074°00'0 0.0
2018-Mar-12 11:30N 40°40' W 074°00'0 0.0
2018-Mar-12 11:00N 40°40' W 074°00'0 0.0
2018-Mar-12 10:30N 40°40' W 074°00'0 0.0
2018-Mar-12 10:00N 40°40' W 074°00'0 0.0
2018-Mar-12 09:30N 40°40' W 074°00'0 0.0
2018-Mar-12 09:00N 40°40' W 074°00'0 0.0
2018-Mar-12 08:30N 40°40' W 074°00'0 0.0
2018-Mar-12 08:00N 40°40' W 074°00'0 0.0
2018-Mar-12 07:30N 40°40' W 074°00'0 0.0
2018-Mar-12 07:00N 40°40' W 074°00'0 0.0
2018-Mar-12 06:30N 40°40' W 074°00'0 0.0
2018-Mar-12 06:00N 40°40' W 074°00'0 0.0
2018-Mar-12 05:30N 40°40' W 074°00'0 0.0
2018-Mar-12 05:00N 40°40' W 074°00'2 4.5
2018-Mar-12 04:30N 40°41' W 074°03'1 2.2
2018-Mar-12 04:00N 40°40' W 074°03'3 5.8
2018-Mar-12 03:30N 40°39' W 074°07'1 1.9
2018-Mar-12 03:00N 40°39' W 074°06'0 0.0
2018-Mar-12 02:28N 40°39' W 074°06'0 0.0
2018-Mar-12 02:00N 40°39' W 074°06'0 0.0
2018-Mar-12 01:30N 40°39' W 074°06'0 0.0
2018-Mar-12 01:00N 40°39' W 074°06'0 0.0
2018-Mar-12 00:30N 40°39' W 074°06'0 0.0
2018-Mar-11 23:59N 40°39' W 074°06'0 0.0
2018-Mar-11 23:30N 40°39' W 074°06'0 0.0
2018-Mar-11 22:59N 40°39' W 074°06'0 0.0
2018-Mar-11 22:30N 40°39' W 074°06'0 0.0
2018-Mar-11 22:00N 40°39' W 074°06'0 0.0
2018-Mar-11 21:29N 40°39' W 074°06'0 0.0
2018-Mar-11 21:00N 40°39' W 074°06'0 0.0
2018-Mar-11 20:29N 40°39' W 074°06'0 0.0
2018-Mar-11 19:59N 40°39' W 074°06'0 0.0
2018-Mar-11 19:30N 40°39' W 074°06'0 0.0
2018-Mar-11 19:00N 40°39' W 074°06'0 0.0
2018-Mar-11 18:30N 40°39' W 074°06'0 0.0
2018-Mar-11 18:00N 40°39' W 074°06'0 0.0
2018-Mar-11 17:30N 40°39' W 074°06'0 0.0
2018-Mar-11 17:00N 40°39' W 074°06'0 0.0
2018-Mar-11 16:30N 40°39' W 074°06'1 1.8
2018-Mar-11 16:00N 40°39' W 074°07'0 0.1
2018-Mar-11 15:30N 40°39' W 074°07'1 2.5
2018-Mar-11 14:59N 40°39' W 074°05'3 5.3
2018-Mar-11 14:30N 40°41' W 074°03'0 0.1
2018-Mar-11 14:00N 40°41' W 074°03'0 0.0
2018-Mar-11 13:30N 40°41' W 074°03'0 0.0
2018-Mar-11 13:00N 40°41' W 074°03'0 0.0
2018-Mar-11 12:30N 40°41' W 074°03'0 0.0
2018-Mar-11 12:00N 40°41' W 074°03'0 0.0
2018-Mar-11 11:30N 40°41' W 074°03'0 0.1
2018-Mar-11 11:00N 40°41' W 074°03'3 6.7
2018-Mar-11 10:30N 40°39' W 074°07'2 4.5
2018-Mar-11 09:59N 40°40' W 074°04'1 3.1
2018-Mar-11 09:30N 40°41' W 074°03'0 0.0
2018-Mar-11 09:00N 40°41' W 074°03'0 0.0
2018-Mar-11 08:30N 40°41' W 074°03'0 0.0
2018-Mar-11 08:00N 40°41' W 074°03'0 0.1
2018-Mar-11 07:30N 40°41' W 074°03'0 0.2
2018-Mar-11 07:00N 40°41' W 074°03'0 0.1
2018-Mar-11 06:30N 40°41' W 074°03'0 0.0
2018-Mar-11 05:59N 40°41' W 074°03'0 0.0
2018-Mar-11 05:30N 40°41' W 074°03'0 0.0
2018-Mar-11 05:00N 40°41' W 074°03'0 0.0
2018-Mar-11 04:30N 40°41' W 074°03'0 0.0
2018-Mar-11 04:00N 40°41' W 074°03'0 0.0
2018-Mar-11 03:30N 40°41' W 074°03'0 0.0
2018-Mar-11 02:59N 40°41' W 074°03'0 0.0
2018-Mar-11 02:30N 40°41' W 074°03'0 0.0
2018-Mar-11 02:00N 40°41' W 074°03'3 5.0
2018-Mar-11 01:29N 40°39' W 074°05'4 8.0
2018-Mar-11 01:00N 40°39' W 074°10'3 5.8
2018-Mar-11 00:30N 40°36' W 074°12'0 0.1
2018-Mar-11 00:00N 40°36' W 074°12'0 0.0
2018-Mar-10 23:29N 40°36' W 074°12'0 0.9
2018-Mar-10 23:00N 40°36' W 074°12'0 0.0
2018-Mar-10 22:30N 40°36' W 074°12'0 0.0
2018-Mar-10 22:00N 40°36' W 074°12'0 0.0
2018-Mar-10 21:30N 40°36' W 074°12'0 0.0
2018-Mar-10 21:00N 40°36' W 074°12'0 0.0
2018-Mar-10 20:30N 40°36' W 074°12'0 0.0
2018-Mar-10 20:00N 40°36' W 074°12'0 0.0
2018-Mar-10 19:30N 40°36' W 074°12'0 0.0
2018-Mar-10 19:00N 40°36' W 074°12'0 0.0
2018-Mar-10 18:30N 40°36' W 074°12'0 0.0
2018-Mar-10 18:00N 40°36' W 074°12'0 0.0
2018-Mar-10 17:30N 40°36' W 074°12'0 0.0
2018-Mar-10 17:00N 40°36' W 074°12'0 0.0
2018-Mar-10 16:30N 40°36' W 074°12'0 0.0
2018-Mar-10 15:59N 40°36' W 074°12'0 0.0
2018-Mar-10 15:30N 40°36' W 074°12'0 0.0
2018-Mar-10 15:00N 40°36' W 074°12'0 0.0
2018-Mar-10 14:28N 40°36' W 074°12'0 0.0
2018-Mar-10 13:59N 40°36' W 074°12'0 0.0
2018-Mar-10 13:30N 40°36' W 074°12'0 0.0
2018-Mar-10 13:00N 40°36' W 074°12'0 0.0
2018-Mar-10 12:30N 40°36' W 074°12'0 0.0
2018-Mar-10 12:00N 40°36' W 074°12'0 0.0
2018-Mar-10 11:30N 40°36' W 074°12'0 0.8
2018-Mar-10 11:00N 40°36' W 074°12'1 3.0
2018-Mar-10 10:30N 40°38' W 074°12'4 7.1
2018-Mar-10 09:58N 40°39' W 074°07'3 7.1
2018-Mar-10 09:30N 40°40' W 074°03'1 2.4
2018-Mar-10 09:00N 40°41' W 074°03'2 3.8
2018-Mar-10 08:30N 40°40' W 074°00'0 0.5
2018-Mar-10 07:59N 40°40' W 074°00'0 0.0
2018-Mar-10 07:30N 40°40' W 074°00'0 0.0
2018-Mar-10 07:00N 40°40' W 074°00'0 0.0
2018-Mar-10 06:30N 40°40' W 074°00'0 0.0
2018-Mar-10 05:58N 40°40' W 074°00'0 0.0
2018-Mar-10 05:30N 40°40' W 074°00'0 0.0
2018-Mar-10 05:00N 40°40' W 074°00'0 0.0
2018-Mar-10 04:29N 40°40' W 074°00'0 0.0
2018-Mar-10 04:00N 40°40' W 074°00'0 0.0
2018-Mar-10 03:28N 40°40' W 074°00'0 0.0
2018-Mar-10 03:00N 40°40' W 074°00'0 0.0
2018-Mar-10 02:30N 40°40' W 074°00'0 0.0
2018-Mar-10 02:00N 40°40' W 074°00'0 0.0
2018-Mar-10 01:30N 40°40' W 074°00'0 0.2
2018-Mar-10 01:00N 40°40' W 074°00'0 0.3
2018-Mar-10 00:29N 40°40' W 074°00'0 0.0
2018-Mar-10 00:00N 40°40' W 074°00'0 0.0
2018-Mar-09 23:29N 40°40' W 074°00'0 0.0
2018-Mar-09 23:00N 40°40' W 074°00'0 0.0
2018-Mar-09 22:29N 40°40' W 074°00'0 0.1
2018-Mar-09 22:00N 40°40' W 074°00'1 2.9
2018-Mar-09 21:30N 40°39' W 074°02'2 5.0
2018-Mar-09 21:00N 40°39' W 074°05'0 0.9
2018-Mar-09 20:29N 40°39' W 074°04'3 6.8
2018-Mar-09 20:00N 40°40' W 074°00'0 0.0
2018-Mar-09 19:30N 40°40' W 074°00'0 0.0
2018-Mar-09 19:00N 40°40' W 074°00'1 1.5
2018-Mar-09 18:30N 40°40' W 074°01'0 0.2
2018-Mar-09 18:00N 40°40' W 074°01'1 1.6
2018-Mar-09 17:29N 40°40' W 074°00'0 0.0
2018-Mar-09 17:00N 40°40' W 074°00'0 0.0
2018-Mar-09 16:30N 40°40' W 074°00'0 0.0
2018-Mar-09 16:00N 40°40' W 074°00'0 0.0
2018-Mar-09 15:30N 40°40' W 074°00'0 0.0
2018-Mar-09 15:00N 40°40' W 074°00'0 0.0
2018-Mar-09 14:29N 40°40' W 074°00'0 0.0
2018-Mar-09 14:00N 40°40' W 074°00'0 0.0
2018-Mar-09 13:30N 40°40' W 074°00'0 0.0
2018-Mar-09 12:59N 40°40' W 074°00'0 0.0
2018-Mar-09 12:30N 40°40' W 074°00'0 0.0
2018-Mar-09 12:00N 40°40' W 074°00'0 0.0
2018-Mar-09 11:30N 40°40' W 074°00'0 0.0
2018-Mar-09 11:00N 40°40' W 074°00'0 0.0
2018-Mar-09 10:30N 40°40' W 074°00'0 0.0
2018-Mar-09 09:58N 40°40' W 074°00'0 0.0
2018-Mar-09 09:30N 40°40' W 074°00'0 0.0
2018-Mar-09 08:59N 40°40' W 074°00'0 0.0
2018-Mar-09 08:30N 40°40' W 074°00'0 0.0
2018-Mar-09 08:00N 40°40' W 074°00'0 0.0
2018-Mar-09 07:30N 40°40' W 074°00'0 0.0
2018-Mar-09 07:00N 40°40' W 074°00'0 0.0
2018-Mar-09 06:30N 40°40' W 074°00'0 0.0
2018-Mar-09 06:00N 40°40' W 074°00'0 0.0
2018-Mar-09 05:30N 40°40' W 074°00'0 0.0
2018-Mar-09 05:00N 40°40' W 074°00'0 0.0
2018-Mar-09 04:30N 40°40' W 074°00'0 0.1
2018-Mar-09 04:00N 40°40' W 074°00'0 0.0
2018-Mar-09 03:30N 40°40' W 074°00'0 0.0
2018-Mar-09 03:00N 40°40' W 074°00'0 0.0
2018-Mar-09 02:29N 40°40' W 074°00'0 0.0
2018-Mar-09 02:00N 40°40' W 074°00'0 0.0
2018-Mar-09 01:30N 40°40' W 074°00'0 0.0
2018-Mar-09 01:00N 40°40' W 074°00'0 0.0
2018-Mar-09 00:29N 40°40' W 074°00'0 0.0
2018-Mar-09 00:00N 40°40' W 074°00'0 0.0
2018-Mar-08 23:30N 40°40' W 074°00'0 0.0
2018-Mar-08 23:00N 40°40' W 074°00'0 0.0
2018-Mar-08 22:30N 40°40' W 074°00'0 0.0
2018-Mar-08 22:00N 40°40' W 074°00'0 0.0
2018-Mar-08 21:30N 40°40' W 074°00'0 0.0
2018-Mar-08 20:59N 40°40' W 074°00'0 0.0
2018-Mar-08 20:30N 40°40' W 074°00'0 0.0
2018-Mar-07 22:00N 40°40' W 074°00'0 0.0
2018-Mar-07 21:30N 40°40' W 074°00'0 0.0
2018-Mar-07 21:00N 40°40' W 074°00'0 0.0
2018-Mar-07 20:30N 40°40' W 073°60'0 0.0
2018-Mar-07 20:00N 40°40' W 074°00'0 0.0
2018-Mar-07 19:30N 40°40' W 074°00'0 0.0
2018-Mar-07 19:00N 40°40' W 074°00'0 0.0
2018-Mar-07 18:30N 40°40' W 074°00'0 0.0
2018-Mar-07 18:00N 40°40' W 074°00'0 0.0
2018-Mar-07 17:30N 40°40' W 074°00'0 0.0
2018-Mar-07 17:00N 40°40' W 074°00'0 0.0
2018-Mar-07 16:30N 40°40' W 074°00'0 0.0
2018-Mar-07 16:00N 40°40' W 074°00'0 0.0
2018-Mar-07 15:30N 40°40' W 074°00'0 0.0
2018-Mar-07 15:00N 40°40' W 074°00'0 0.0
2018-Mar-07 14:30N 40°40' W 074°00'0 0.0
2018-Mar-07 14:00N 40°40' W 074°00'0 0.0
2018-Mar-07 13:30N 40°40' W 074°00'0 0.0
2018-Mar-07 13:00N 40°40' W 074°00'0 0.0
2018-Mar-07 12:30N 40°40' W 074°00'0 0.0
2018-Mar-07 12:00N 40°40' W 074°00'0 0.0
2018-Mar-07 11:30N 40°40' W 074°00'0 0.0
2018-Mar-07 11:00N 40°40' W 074°00'0 0.0
2018-Mar-07 10:30N 40°40' W 074°00'0 0.0
2018-Mar-07 10:00N 40°40' W 074°00'0 0.0
2018-Mar-07 09:30N 40°40' W 074°00'0 0.0
2018-Mar-07 09:00N 40°40' W 074°00'0 0.0
2018-Mar-07 08:30N 40°40' W 074°00'0 0.0
2018-Mar-07 08:00N 40°40' W 074°00'0 0.0
2018-Mar-07 07:30N 40°40' W 074°00'0 0.0
2018-Mar-07 07:00N 40°40' W 074°00'0 0.0
2018-Mar-07 06:30N 40°40' W 074°00'0 0.0
2018-Mar-07 06:00N 40°40' W 074°00'0 0.0
2018-Mar-07 05:30N 40°40' W 074°00'0 0.0
2018-Mar-07 05:00N 40°40' W 074°00'0 0.0
2018-Mar-07 04:30N 40°40' W 074°00'0 0.0
2018-Mar-07 04:00N 40°40' W 074°00'0 0.0
2018-Mar-07 03:30N 40°40' W 074°00'0 0.0
2018-Mar-07 03:00N 40°40' W 074°00'0 0.0
2018-Mar-07 02:30N 40°40' W 074°00'0 0.0
2018-Mar-07 02:00N 40°40' W 074°00'0 0.0
2018-Mar-07 01:30N 40°40' W 074°00'0 0.1
2018-Mar-07 01:00N 40°40' W 074°00'0 0.0
2018-Mar-07 00:30N 40°40' W 074°00'0 0.0
2018-Mar-06 23:59N 40°40' W 074°00'0 0.0
2018-Mar-06 23:30N 40°40' W 074°00'0 0.0
2018-Mar-06 23:00N 40°40' W 074°00'0 0.0
2018-Mar-06 22:30N 40°40' W 074°00'0 0.0
2018-Mar-06 22:00N 40°40' W 074°00'0 0.0
2018-Mar-06 21:30N 40°40' W 074°00'0 0.0
2018-Mar-06 21:00N 40°40' W 074°00'0 0.0
2018-Mar-06 20:30N 40°40' W 074°00'0 0.1
2018-Mar-06 20:00N 40°40' W 074°00'0 0.0
2018-Mar-06 19:30N 40°40' W 074°00'0 0.0
2018-Mar-06 19:00N 40°40' W 074°00'0 0.0
2018-Mar-06 18:30N 40°40' W 074°00'0 0.0
2018-Mar-06 18:00N 40°40' W 074°00'0 0.0
2018-Mar-06 17:30N 40°40' W 074°00'0 0.0
2018-Mar-06 17:00N 40°40' W 074°00'0 0.0
2018-Mar-06 16:30N 40°40' W 074°00'0 0.0
2018-Mar-06 16:00N 40°40' W 074°00'0 0.0
2018-Mar-06 15:30N 40°40' W 074°00'0 0.0
2018-Mar-06 15:00N 40°40' W 074°00'0 0.0
2018-Mar-06 14:30N 40°40' W 074°00'0 0.0
2018-Mar-06 14:00N 40°40' W 074°00'0 0.0
2018-Mar-06 13:30N 40°40' W 074°00'0 0.0
2018-Mar-06 13:00N 40°40' W 074°00'0 0.0
2018-Mar-06 12:30N 40°40' W 074°00'0 0.0
2018-Mar-06 12:00N 40°40' W 074°00'0 0.0
2018-Mar-06 11:30N 40°40' W 074°00'0 0.0
2018-Mar-06 11:00N 40°40' W 074°00'0 0.0
2018-Mar-06 10:30N 40°40' W 074°00'0 0.0
2018-Mar-06 10:00N 40°40' W 074°00'0 0.0
2018-Mar-06 09:30N 40°40' W 074°00'0 0.0
2018-Mar-06 09:00N 40°40' W 074°00'0 0.0
2018-Mar-06 08:30N 40°40' W 074°00'0 0.0
2018-Mar-06 08:00N 40°40' W 074°00'0 0.0
2018-Mar-06 07:30N 40°40' W 074°00'0 0.0
2018-Mar-06 07:00N 40°40' W 074°00'0 0.2
2018-Mar-06 06:30N 40°40' W 074°00'2 4.4
2018-Mar-06 06:00N 40°41' W 074°03'0 0.1
2018-Mar-06 05:30N 40°41' W 074°03'0 0.1
2018-Mar-06 05:00N 40°41' W 074°03'0 0.0
2018-Mar-06 04:30N 40°41' W 074°03'0 0.0
2018-Mar-06 04:00N 40°41' W 074°03'0 0.1
2018-Mar-06 03:30N 40°41' W 074°03'0 0.1
2018-Mar-06 03:00N 40°41' W 074°03'0 0.0
2018-Mar-06 02:30N 40°41' W 074°03'0 0.0
2018-Mar-06 02:00N 40°41' W 074°03'0 0.0
2018-Mar-06 01:30N 40°41' W 074°03'0 0.0
2018-Mar-06 01:00N 40°41' W 074°03'0 0.0
2018-Mar-06 00:30N 40°41' W 074°03'0 0.0
2018-Mar-06 00:00N 40°41' W 074°03'0 0.0
2018-Mar-05 23:30N 40°41' W 074°03'0 0.0
2018-Mar-05 23:00N 40°41' W 074°03'0 0.0
2018-Mar-05 22:30N 40°41' W 074°03'0 0.0
2018-Mar-05 22:00N 40°41' W 074°03'0 0.0
2018-Mar-05 21:30N 40°41' W 074°03'0 0.0
2018-Mar-05 21:00N 40°41' W 074°03'0 0.0
2018-Mar-05 20:30N 40°41' W 074°03'0 0.0
2018-Mar-05 20:00N 40°41' W 074°03'0 0.0
2018-Mar-05 19:30N 40°41' W 074°03'0 0.0
2018-Mar-05 19:00N 40°41' W 074°03'0 0.0
2018-Mar-05 18:30N 40°41' W 074°03'0 0.0
2018-Mar-05 18:00N 40°41' W 074°03'0 0.0
2018-Mar-05 17:30N 40°41' W 074°03'0 0.0
2018-Mar-05 17:00N 40°41' W 074°03'0 0.0
2018-Mar-05 16:30N 40°41' W 074°03'0 0.0
2018-Mar-05 16:00N 40°41' W 074°03'0 0.0
2018-Mar-05 15:30N 40°41' W 074°03'0 0.0
2018-Mar-05 15:00N 40°41' W 074°03'0 0.0
2018-Mar-05 14:30N 40°41' W 074°03'0 0.0
2018-Mar-05 14:00N 40°41' W 074°03'0 0.0
2018-Mar-05 13:30N 40°41' W 074°03'0 0.0
2018-Mar-05 13:00N 40°41' W 074°03'0 0.0
2018-Mar-05 12:30N 40°41' W 074°03'0 0.0
2018-Mar-05 12:00N 40°41' W 074°03'0 0.0
2018-Mar-05 11:30N 40°41' W 074°03'0 0.0
2018-Mar-05 11:00N 40°41' W 074°03'0 0.0
2018-Mar-05 10:30N 40°41' W 074°03'0 0.0
2018-Mar-05 10:00N 40°41' W 074°03'0 0.0
2018-Mar-05 09:30N 40°41' W 074°03'0 0.0
2018-Mar-05 09:00N 40°41' W 074°03'0 0.0
2018-Mar-05 08:30N 40°41' W 074°03'0 0.0
2018-Mar-05 08:00N 40°41' W 074°03'0 0.0
2018-Mar-05 07:30N 40°41' W 074°03'0 0.0
2018-Mar-05 07:00N 40°41' W 074°03'0 0.0
2018-Mar-05 06:30N 40°41' W 074°03'0 0.0
2018-Mar-05 06:00N 40°41' W 074°03'0 0.0
2018-Mar-05 05:30N 40°41' W 074°03'0 0.0
2018-Mar-05 05:00N 40°41' W 074°03'0 0.0
2018-Mar-05 04:30N 40°41' W 074°03'0 0.0
2018-Mar-05 04:00N 40°41' W 074°03'0 0.0
2018-Mar-05 03:31N 40°41' W 074°03'0 0.0
2018-Mar-05 03:00N 40°41' W 074°03'0 0.0
2018-Mar-05 02:30N 40°41' W 074°03'0 0.0
2018-Mar-05 02:00N 40°41' W 074°03'0 0.0
2018-Mar-05 01:30N 40°41' W 074°03'0 0.0
2018-Mar-05 00:58N 40°41' W 074°03'0 0.0
2018-Mar-05 00:30N 40°41' W 074°03'0 0.0
2018-Mar-05 00:00N 40°41' W 074°03'0 0.0
2018-Mar-04 23:30N 40°41' W 074°03'3 5.0
2018-Mar-04 23:00N 40°42' W 074°00'4 8.1
2018-Mar-04 22:30N 40°46' W 073°57'4 7.9
2018-Mar-04 21:59N 40°48' W 073°53'4 7.2
2018-Mar-04 21:29N 40°48' W 073°48'  
Track history (hours):
 
Tides and Currents Weather Stations Pressure Air Temp Water Temp Dewpoint Dewpoint Depression Visibility Wind Speed Wind Dir Waves Ship Positions

Andrea

Owner: Enterprise Marine Services, LLC, San Antonio, TX. More information available from US FCC via Universal Licensing System and Coast Guard Vessel Documentation Center.

Last reported at 2018-Mar-14 16:21 UTC. Time now 2018-May-27 03:04 UTC.
Position N 40°40' W 074°00'.
Warning: this ship's position is months out of date.

; draft 4 m.

Type: Towing. MMSI: 367003310.

Date/timePositionNaut miles runAvg speedWind from/ knotsBaromVisibWave heightAir tempDewpointWater temp
2018-Mar-14 16:21N 40°40' W 074°00'0 0.0
2018-Mar-14 16:00N 40°40' W 074°00'0 0.0
2018-Mar-14 15:30N 40°40' W 074°00'0 0.0
2018-Mar-14 15:00N 40°40' W 074°00'0 0.0
2018-Mar-14 14:30N 40°40' W 074°00'0 0.0
2018-Mar-14 14:00N 40°40' W 074°00'0 0.0
2018-Mar-14 13:30N 40°40' W 074°00'0 0.0
2018-Mar-14 13:00N 40°40' W 074°00'0 0.0
2018-Mar-14 12:30N 40°40' W 074°00'0 0.0
2018-Mar-14 12:01N 40°40' W 074°00'5 9.0
2018-Mar-14 11:28N 40°39' W 074°06'1 2.5
2018-Mar-14 11:00N 40°39' W 074°05'2 4.7
2018-Mar-14 10:30N 40°41' W 074°03'0 0.1
2018-Mar-14 10:00N 40°41' W 074°03'0 0.0
2018-Mar-14 09:30N 40°41' W 074°03'0 0.0
2018-Mar-14 09:00N 40°41' W 074°03'0 0.1
2018-Mar-14 08:30N 40°41' W 074°03'0 0.1
2018-Mar-14 08:00N 40°41' W 074°03'0 0.0
2018-Mar-14 07:30N 40°41' W 074°03'0 0.0
2018-Mar-14 07:00N 40°41' W 074°03'0 0.0
2018-Mar-14 06:30N 40°41' W 074°03'0 0.0
2018-Mar-14 06:00N 40°41' W 074°03'0 0.0
2018-Mar-14 05:30N 40°41' W 074°03'0 0.0
2018-Mar-14 05:00N 40°41' W 074°03'0 0.0
2018-Mar-14 04:30N 40°41' W 074°03'0 0.0
2018-Mar-14 04:00N 40°41' W 074°03'0 0.0
2018-Mar-14 03:30N 40°41' W 074°03'0 0.0
2018-Mar-14 03:00N 40°41' W 074°03'0 0.0
2018-Mar-14 02:30N 40°41' W 074°03'0 0.0
2018-Mar-14 02:00N 40°41' W 074°03'0 0.0
2018-Mar-14 01:30N 40°41' W 074°03'0 0.1
2018-Mar-14 01:00N 40°41' W 074°03'0 0.1
2018-Mar-14 00:30N 40°41' W 074°03'0 0.0
2018-Mar-14 00:01N 40°41' W 074°03'2 4.4
2018-Mar-13 23:30N 40°40' W 074°00'1 2.2
2018-Mar-13 23:00N 40°39' W 074°01'3 6.1
2018-Mar-13 22:30N 40°39' W 074°05'1 1.6
2018-Mar-13 22:00N 40°39' W 074°06'0 0.0
2018-Mar-13 21:30N 40°39' W 074°06'3 5.8
2018-Mar-13 21:00N 40°39' W 074°03'2 4.4
2018-Mar-13 20:30N 40°40' W 074°00'0 0.1
2018-Mar-13 20:00N 40°40' W 074°00'0 0.1
2018-Mar-13 19:30N 40°40' W 074°00'0 0.3
2018-Mar-13 19:01N 40°40' W 074°00'0 0.4
2018-Mar-13 18:30N 40°40' W 074°00'0 0.1
2018-Mar-13 18:00N 40°40' W 074°00'0 0.0
2018-Mar-13 17:30N 40°40' W 074°00'0 0.0
2018-Mar-13 17:00N 40°40' W 074°00'0 0.0
2018-Mar-13 16:30N 40°40' W 074°00'0 0.0
2018-Mar-13 16:00N 40°40' W 074°00'0 0.0
2018-Mar-13 15:29N 40°40' W 074°00'0 0.0
2018-Mar-13 15:00N 40°40' W 074°00'0 0.0
2018-Mar-13 14:29N 40°40' W 074°00'0 0.0
2018-Mar-13 14:00N 40°40' W 074°00'0 0.0
2018-Mar-13 13:30N 40°40' W 074°00'0 0.0
2018-Mar-13 13:00N 40°40' W 074°00'0 0.0
2018-Mar-13 12:30N 40°40' W 074°00'0 0.0
2018-Mar-13 12:00N 40°40' W 074°00'0 0.0
2018-Mar-13 11:30N 40°40' W 074°00'0 0.0
2018-Mar-13 11:00N 40°40' W 074°00'0 0.0
2018-Mar-13 10:30N 40°40' W 074°00'0 0.0
2018-Mar-13 10:00N 40°40' W 074°00'0 0.0
2018-Mar-13 09:30N 40°40' W 074°00'0 0.0
2018-Mar-13 09:00N 40°40' W 074°00'0 0.0
2018-Mar-13 08:30N 40°40' W 074°00'0 0.0
2018-Mar-13 08:00N 40°40' W 074°00'0 0.0
2018-Mar-13 07:30N 40°40' W 074°00'0 0.0
2018-Mar-13 07:00N 40°40' W 074°00'0 0.0
2018-Mar-13 06:30N 40°40' W 074°00'0 0.0
2018-Mar-13 06:00N 40°40' W 074°00'0 0.0
2018-Mar-13 05:30N 40°40' W 074°00'0 0.0
2018-Mar-13 05:00N 40°40' W 074°00'0 0.0
2018-Mar-13 04:30N 40°40' W 074°00'0 0.0
2018-Mar-13 03:59N 40°40' W 074°00'0 0.6
2018-Mar-13 03:30N 40°40' W 074°00'4 7.2
2018-Mar-13 03:00N 40°39' W 074°05'3 6.8
2018-Mar-13 02:30N 40°38' W 074°10'0 0.9
2018-Mar-13 02:00N 40°39' W 074°09'4 7.7
2018-Mar-13 01:30N 40°42' W 074°07'0 0.0
2018-Mar-13 01:00N 40°42' W 074°07'0 0.0
2018-Mar-13 00:30N 40°42' W 074°07'0 0.0
2018-Mar-13 00:00N 40°42' W 074°07'0 0.0
2018-Mar-12 23:30N 40°42' W 074°07'0 0.0
2018-Mar-12 23:00N 40°42' W 074°07'4 7.7
2018-Mar-12 22:30N 40°39' W 074°09'1 1.2
2018-Mar-12 22:00N 40°38' W 074°10'0 0.0
2018-Mar-12 21:30N 40°38' W 074°10'0 0.0
2018-Mar-12 20:59N 40°38' W 074°10'0 0.0
2018-Mar-12 20:27N 40°38' W 074°10'0 0.0
2018-Mar-12 20:00N 40°38' W 074°10'0 0.0
2018-Mar-12 19:30N 40°38' W 074°10'0 0.0
2018-Mar-12 19:00N 40°38' W 074°10'0 0.0
2018-Mar-12 18:29N 40°38' W 074°10'0 0.0
2018-Mar-12 18:00N 40°38' W 074°10'1 2.6
2018-Mar-12 17:30N 40°39' W 074°08'3 6.1
2018-Mar-12 17:00N 40°38' W 074°04'0 0.0
2018-Mar-12 16:30N 40°38' W 074°04'0 0.0
2018-Mar-12 16:00N 40°38' W 074°04'0 0.0
2018-Mar-12 15:30N 40°38' W 074°04'0 0.0
2018-Mar-12 15:00N 40°38' W 074°04'0 0.0
2018-Mar-12 14:30N 40°38' W 074°04'0 0.0
2018-Mar-12 14:00N 40°38' W 074°04'1 2.4
2018-Mar-12 13:30N 40°39' W 074°02'2 4.2
2018-Mar-12 13:00N 40°40' W 074°00'0 0.0
2018-Mar-12 12:30N 40°40' W 074°00'0 0.0
2018-Mar-12 12:00N 40°40' W 074°00'0 0.0
2018-Mar-12 11:30N 40°40' W 074°00'0 0.0
2018-Mar-12 11:00N 40°40' W 074°00'0 0.0
2018-Mar-12 10:30N 40°40' W 074°00'0 0.0
2018-Mar-12 10:00N 40°40' W 074°00'0 0.0
2018-Mar-12 09:30N 40°40' W 074°00'0 0.0
2018-Mar-12 09:00N 40°40' W 074°00'0 0.0
2018-Mar-12 08:30N 40°40' W 074°00'0 0.0
2018-Mar-12 08:00N 40°40' W 074°00'0 0.0
2018-Mar-12 07:30N 40°40' W 074°00'0 0.0
2018-Mar-12 07:00N 40°40' W 074°00'0 0.0
2018-Mar-12 06:30N 40°40' W 074°00'0 0.0
2018-Mar-12 06:00N 40°40' W 074°00'0 0.0
2018-Mar-12 05:30N 40°40' W 074°00'0 0.0
2018-Mar-12 05:00N 40°40' W 074°00'2 4.5
2018-Mar-12 04:30N 40°41' W 074°03'1 2.2
2018-Mar-12 04:00N 40°40' W 074°03'3 5.8
2018-Mar-12 03:30N 40°39' W 074°07'1 1.9
2018-Mar-12 03:00N 40°39' W 074°06'0 0.0
2018-Mar-12 02:28N 40°39' W 074°06'0 0.0
2018-Mar-12 02:00N 40°39' W 074°06'0 0.0
2018-Mar-12 01:30N 40°39' W 074°06'0 0.0
2018-Mar-12 01:00N 40°39' W 074°06'0 0.0
2018-Mar-12 00:30N 40°39' W 074°06'0 0.0
2018-Mar-11 23:59N 40°39' W 074°06'0 0.0
2018-Mar-11 23:30N 40°39' W 074°06'0 0.0
2018-Mar-11 22:59N 40°39' W 074°06'0 0.0
2018-Mar-11 22:30N 40°39' W 074°06'0 0.0
2018-Mar-11 22:00N 40°39' W 074°06'0 0.0
2018-Mar-11 21:29N 40°39' W 074°06'0 0.0
2018-Mar-11 21:00N 40°39' W 074°06'0 0.0
2018-Mar-11 20:29N 40°39' W 074°06'0 0.0
2018-Mar-11 19:59N 40°39' W 074°06'0 0.0
2018-Mar-11 19:30N 40°39' W 074°06'0 0.0
2018-Mar-11 19:00N 40°39' W 074°06'0 0.0
2018-Mar-11 18:30N 40°39' W 074°06'0 0.0
2018-Mar-11 18:00N 40°39' W 074°06'0 0.0
2018-Mar-11 17:30N 40°39' W 074°06'0 0.0
2018-Mar-11 17:00N 40°39' W 074°06'0 0.0
2018-Mar-11 16:30N 40°39' W 074°06'1 1.8
2018-Mar-11 16:00N 40°39' W 074°07'0 0.1
2018-Mar-11 15:30N 40°39' W 074°07'1 2.5
2018-Mar-11 14:59N 40°39' W 074°05'3 5.3
2018-Mar-11 14:30N 40°41' W 074°03'0 0.1
2018-Mar-11 14:00N 40°41' W 074°03'0 0.0
2018-Mar-11 13:30N 40°41' W 074°03'0 0.0
2018-Mar-11 13:00N 40°41' W 074°03'0 0.0
2018-Mar-11 12:30N 40°41' W 074°03'0 0.0
2018-Mar-11 12:00N 40°41' W 074°03'0 0.0
2018-Mar-11 11:30N 40°41' W 074°03'0 0.1
2018-Mar-11 11:00N 40°41' W 074°03'3 6.7
2018-Mar-11 10:30N 40°39' W 074°07'2 4.5
2018-Mar-11 09:59N 40°40' W 074°04'1 3.1
2018-Mar-11 09:30N 40°41' W 074°03'0 0.0
2018-Mar-11 09:00N 40°41' W 074°03'0 0.0
2018-Mar-11 08:30N 40°41' W 074°03'0 0.0
2018-Mar-11 08:00N 40°41' W 074°03'0 0.1
2018-Mar-11 07:30N 40°41' W 074°03'0 0.2
2018-Mar-11 07:00N 40°41' W 074°03'0 0.1
2018-Mar-11 06:30N 40°41' W 074°03'0 0.0
2018-Mar-11 05:59N 40°41' W 074°03'0 0.0
2018-Mar-11 05:30N 40°41' W 074°03'0 0.0
2018-Mar-11 05:00N 40°41' W 074°03'0 0.0
2018-Mar-11 04:30N 40°41' W 074°03'0 0.0
2018-Mar-11 04:00N 40°41' W 074°03'0 0.0
2018-Mar-11 03:30N 40°41' W 074°03'0 0.0
2018-Mar-11 02:59N 40°41' W 074°03'0 0.0
2018-Mar-11 02:30N 40°41' W 074°03'0 0.0
2018-Mar-11 02:00N 40°41' W 074°03'3 5.0
2018-Mar-11 01:29N 40°39' W 074°05'4 8.0
2018-Mar-11 01:00N 40°39' W 074°10'3 5.8
2018-Mar-11 00:30N 40°36' W 074°12'0 0.1
2018-Mar-11 00:00N 40°36' W 074°12'0 0.0
2018-Mar-10 23:29N 40°36' W 074°12'0 0.9
2018-Mar-10 23:00N 40°36' W 074°12'0 0.0
2018-Mar-10 22:30N 40°36' W 074°12'0 0.0
2018-Mar-10 22:00N 40°36' W 074°12'0 0.0
2018-Mar-10 21:30N 40°36' W 074°12'0 0.0
2018-Mar-10 21:00N 40°36' W 074°12'0 0.0
2018-Mar-10 20:30N 40°36' W 074°12'0 0.0
2018-Mar-10 20:00N 40°36' W 074°12'0 0.0
2018-Mar-10 19:30N 40°36' W 074°12'0 0.0
2018-Mar-10 19:00N 40°36' W 074°12'0 0.0
2018-Mar-10 18:30N 40°36' W 074°12'0 0.0
2018-Mar-10 18:00N 40°36' W 074°12'0 0.0
2018-Mar-10 17:30N 40°36' W 074°12'0 0.0
2018-Mar-10 17:00N 40°36' W 074°12'0 0.0
2018-Mar-10 16:30N 40°36' W 074°12'0 0.0
2018-Mar-10 15:59N 40°36' W 074°12'0 0.0
2018-Mar-10 15:30N 40°36' W 074°12'0 0.0
2018-Mar-10 15:00N 40°36' W 074°12'0 0.0
2018-Mar-10 14:28N 40°36' W 074°12'0 0.0
2018-Mar-10 13:59N 40°36' W 074°12'0 0.0
2018-Mar-10 13:30N 40°36' W 074°12'0 0.0
2018-Mar-10 13:00N 40°36' W 074°12'0 0.0
2018-Mar-10 12:30N 40°36' W 074°12'0 0.0
2018-Mar-10 12:00N 40°36' W 074°12'0 0.0
2018-Mar-10 11:30N 40°36' W 074°12'0 0.8
2018-Mar-10 11:00N 40°36' W 074°12'1 3.0
2018-Mar-10 10:30N 40°38' W 074°12'4 7.1
2018-Mar-10 09:58N 40°39' W 074°07'3 7.1
2018-Mar-10 09:30N 40°40' W 074°03'1 2.4
2018-Mar-10 09:00N 40°41' W 074°03'2 3.8
2018-Mar-10 08:30N 40°40' W 074°00'0 0.5
2018-Mar-10 07:59N 40°40' W 074°00'0 0.0
2018-Mar-10 07:30N 40°40' W 074°00'0 0.0
2018-Mar-10 07:00N 40°40' W 074°00'0 0.0
2018-Mar-10 06:30N 40°40' W 074°00'0 0.0
2018-Mar-10 05:58N 40°40' W 074°00'0 0.0
2018-Mar-10 05:30N 40°40' W 074°00'0 0.0
2018-Mar-10 05:00N 40°40' W 074°00'0 0.0
2018-Mar-10 04:29N 40°40' W 074°00'0 0.0
2018-Mar-10 04:00N 40°40' W 074°00'0 0.0
2018-Mar-10 03:28N 40°40' W 074°00'0 0.0
2018-Mar-10 03:00N 40°40' W 074°00'0 0.0
2018-Mar-10 02:30N 40°40' W 074°00'0 0.0
2018-Mar-10 02:00N 40°40' W 074°00'0 0.0
2018-Mar-10 01:30N 40°40' W 074°00'0 0.2
2018-Mar-10 01:00N 40°40' W 074°00'0 0.3
2018-Mar-10 00:29N 40°40' W 074°00'0 0.0
2018-Mar-10 00:00N 40°40' W 074°00'0 0.0
2018-Mar-09 23:29N 40°40' W 074°00'0 0.0
2018-Mar-09 23:00N 40°40' W 074°00'0 0.0
2018-Mar-09 22:29N 40°40' W 074°00'0 0.1
2018-Mar-09 22:00N 40°40' W 074°00'1 2.9
2018-Mar-09 21:30N 40°39' W 074°02'2 5.0
2018-Mar-09 21:00N 40°39' W 074°05'0 0.9
2018-Mar-09 20:29N 40°39' W 074°04'3 6.8
2018-Mar-09 20:00N 40°40' W 074°00'0 0.0
2018-Mar-09 19:30N 40°40' W 074°00'0 0.0
2018-Mar-09 19:00N 40°40' W 074°00'1 1.5
2018-Mar-09 18:30N 40°40' W 074°01'0 0.2
2018-Mar-09 18:00N 40°40' W 074°01'1 1.6
2018-Mar-09 17:29N 40°40' W 074°00'0 0.0
2018-Mar-09 17:00N 40°40' W 074°00'0 0.0
2018-Mar-09 16:30N 40°40' W 074°00'0 0.0
2018-Mar-09 16:00N 40°40' W 074°00'0 0.0
2018-Mar-09 15:30N 40°40' W 074°00'0 0.0
2018-Mar-09 15:00N 40°40' W 074°00'0 0.0
2018-Mar-09 14:29N 40°40' W 074°00'0 0.0
2018-Mar-09 14:00N 40°40' W 074°00'0 0.0
2018-Mar-09 13:30N 40°40' W 074°00'0 0.0
2018-Mar-09 12:59N 40°40' W 074°00'0 0.0
2018-Mar-09 12:30N 40°40' W 074°00'0 0.0
2018-Mar-09 12:00N 40°40' W 074°00'0 0.0
2018-Mar-09 11:30N 40°40' W 074°00'0 0.0
2018-Mar-09 11:00N 40°40' W 074°00'0 0.0
2018-Mar-09 10:30N 40°40' W 074°00'0 0.0
2018-Mar-09 09:58N 40°40' W 074°00'0 0.0
2018-Mar-09 09:30N 40°40' W 074°00'0 0.0
2018-Mar-09 08:59N 40°40' W 074°00'0 0.0
2018-Mar-09 08:30N 40°40' W 074°00'0 0.0
2018-Mar-09 08:00N 40°40' W 074°00'0 0.0
2018-Mar-09 07:30N 40°40' W 074°00'0 0.0
2018-Mar-09 07:00N 40°40' W 074°00'0 0.0
2018-Mar-09 06:30N 40°40' W 074°00'0 0.0
2018-Mar-09 06:00N 40°40' W 074°00'0 0.0
2018-Mar-09 05:30N 40°40' W 074°00'0 0.0
2018-Mar-09 05:00N 40°40' W 074°00'0 0.0
2018-Mar-09 04:30N 40°40' W 074°00'0 0.1
2018-Mar-09 04:00N 40°40' W 074°00'0 0.0
2018-Mar-09 03:30N 40°40' W 074°00'0 0.0
2018-Mar-09 03:00N 40°40' W 074°00'0 0.0
2018-Mar-09 02:29N 40°40' W 074°00'0 0.0
2018-Mar-09 02:00N 40°40' W 074°00'0 0.0
2018-Mar-09 01:30N 40°40' W 074°00'0 0.0
2018-Mar-09 01:00N 40°40' W 074°00'0 0.0
2018-Mar-09 00:29N 40°40' W 074°00'0 0.0
2018-Mar-09 00:00N 40°40' W 074°00'0 0.0
2018-Mar-08 23:30N 40°40' W 074°00'0 0.0
2018-Mar-08 23:00N 40°40' W 074°00'0 0.0
2018-Mar-08 22:30N 40°40' W 074°00'0 0.0
2018-Mar-08 22:00N 40°40' W 074°00'0 0.0
2018-Mar-08 21:30N 40°40' W 074°00'0 0.0
2018-Mar-08 20:59N 40°40' W 074°00'0 0.0
2018-Mar-08 20:30N 40°40' W 074°00'0 0.0
2018-Mar-07 22:00N 40°40' W 074°00'0 0.0
2018-Mar-07 21:30N 40°40' W 074°00'0 0.0
2018-Mar-07 21:00N 40°40' W 074°00'0 0.0
2018-Mar-07 20:30N 40°40' W 073°60'0 0.0
2018-Mar-07 20:00N 40°40' W 074°00'0 0.0
2018-Mar-07 19:30N 40°40' W 074°00'0 0.0
2018-Mar-07 19:00N 40°40' W 074°00'0 0.0
2018-Mar-07 18:30N 40°40' W 074°00'0 0.0
2018-Mar-07 18:00N 40°40' W 074°00'0 0.0
2018-Mar-07 17:30N 40°40' W 074°00'0 0.0
2018-Mar-07 17:00N 40°40' W 074°00'0 0.0
2018-Mar-07 16:30N 40°40' W 074°00'0 0.0
2018-Mar-07 16:00N 40°40' W 074°00'0 0.0
2018-Mar-07 15:30N 40°40' W 074°00'0 0.0
2018-Mar-07 15:00N 40°40' W 074°00'0 0.0
2018-Mar-07 14:30N 40°40' W 074°00'0 0.0
2018-Mar-07 14:00N 40°40' W 074°00'0 0.0
2018-Mar-07 13:30N 40°40' W 074°00'0 0.0
2018-Mar-07 13:00N 40°40' W 074°00'0 0.0
2018-Mar-07 12:30N 40°40' W 074°00'0 0.0
2018-Mar-07 12:00N 40°40' W 074°00'0 0.0
2018-Mar-07 11:30N 40°40' W 074°00'0 0.0
2018-Mar-07 11:00N 40°40' W 074°00'0 0.0
2018-Mar-07 10:30N 40°40' W 074°00'0 0.0
2018-Mar-07 10:00N 40°40' W 074°00'0 0.0
2018-Mar-07 09:30N 40°40' W 074°00'0 0.0
2018-Mar-07 09:00N 40°40' W 074°00'0 0.0
2018-Mar-07 08:30N 40°40' W 074°00'0 0.0
2018-Mar-07 08:00N 40°40' W 074°00'0 0.0
2018-Mar-07 07:30N 40°40' W 074°00'0 0.0
2018-Mar-07 07:00N 40°40' W 074°00'0 0.0
2018-Mar-07 06:30N 40°40' W 074°00'0 0.0
2018-Mar-07 06:00N 40°40' W 074°00'0 0.0
2018-Mar-07 05:30N 40°40' W 074°00'0 0.0
2018-Mar-07 05:00N 40°40' W 074°00'0 0.0
2018-Mar-07 04:30N 40°40' W 074°00'0 0.0
2018-Mar-07 04:00N 40°40' W 074°00'0 0.0
2018-Mar-07 03:30N 40°40' W 074°00'0 0.0
2018-Mar-07 03:00N 40°40' W 074°00'0 0.0
2018-Mar-07 02:30N 40°40' W 074°00'0 0.0
2018-Mar-07 02:00N 40°40' W 074°00'0 0.0
2018-Mar-07 01:30N 40°40' W 074°00'0 0.1
2018-Mar-07 01:00N 40°40' W 074°00'0 0.0
2018-Mar-07 00:30N 40°40' W 074°00'0 0.0
2018-Mar-06 23:59N 40°40' W 074°00'0 0.0
2018-Mar-06 23:30N 40°40' W 074°00'0 0.0
2018-Mar-06 23:00N 40°40' W 074°00'0 0.0
2018-Mar-06 22:30N 40°40' W 074°00'0 0.0
2018-Mar-06 22:00N 40°40' W 074°00'0 0.0
2018-Mar-06 21:30N 40°40' W 074°00'0 0.0
2018-Mar-06 21:00N 40°40' W 074°00'0 0.0
2018-Mar-06 20:30N 40°40' W 074°00'0 0.1
2018-Mar-06 20:00N 40°40' W 074°00'0 0.0
2018-Mar-06 19:30N 40°40' W 074°00'0 0.0
2018-Mar-06 19:00N 40°40' W 074°00'0 0.0
2018-Mar-06 18:30N 40°40' W 074°00'0 0.0
2018-Mar-06 18:00N 40°40' W 074°00'0 0.0
2018-Mar-06 17:30N 40°40' W 074°00'0 0.0
2018-Mar-06 17:00N 40°40' W 074°00'0 0.0
2018-Mar-06 16:30N 40°40' W 074°00'0 0.0
2018-Mar-06 16:00N 40°40' W 074°00'0 0.0
2018-Mar-06 15:30N 40°40' W 074°00'0 0.0
2018-Mar-06 15:00N 40°40' W 074°00'0 0.0
2018-Mar-06 14:30N 40°40' W 074°00'0 0.0
2018-Mar-06 14:00N 40°40' W 074°00'0 0.0
2018-Mar-06 13:30N 40°40' W 074°00'0 0.0
2018-Mar-06 13:00N 40°40' W 074°00'0 0.0
2018-Mar-06 12:30N 40°40' W 074°00'0 0.0
2018-Mar-06 12:00N 40°40' W 074°00'0 0.0
2018-Mar-06 11:30N 40°40' W 074°00'0 0.0
2018-Mar-06 11:00N 40°40' W 074°00'0 0.0
2018-Mar-06 10:30N 40°40' W 074°00'0 0.0
2018-Mar-06 10:00N 40°40' W 074°00'0 0.0
2018-Mar-06 09:30N 40°40' W 074°00'0 0.0
2018-Mar-06 09:00N 40°40' W 074°00'0 0.0
2018-Mar-06 08:30N 40°40' W 074°00'0 0.0
2018-Mar-06 08:00N 40°40' W 074°00'0 0.0
2018-Mar-06 07:30N 40°40' W 074°00'0 0.0
2018-Mar-06 07:00N 40°40' W 074°00'0 0.2
2018-Mar-06 06:30N 40°40' W 074°00'2 4.4
2018-Mar-06 06:00N 40°41' W 074°03'0 0.1
2018-Mar-06 05:30N 40°41' W 074°03'0 0.1
2018-Mar-06 05:00N 40°41' W 074°03'0 0.0
2018-Mar-06 04:30N 40°41' W 074°03'0 0.0
2018-Mar-06 04:00N 40°41' W 074°03'0 0.1
2018-Mar-06 03:30N 40°41' W 074°03'0 0.1
2018-Mar-06 03:00N 40°41' W 074°03'0 0.0
2018-Mar-06 02:30N 40°41' W 074°03'0 0.0
2018-Mar-06 02:00N 40°41' W 074°03'0 0.0
2018-Mar-06 01:30N 40°41' W 074°03'0 0.0
2018-Mar-06 01:00N 40°41' W 074°03'0 0.0
2018-Mar-06 00:30N 40°41' W 074°03'0 0.0
2018-Mar-06 00:00N 40°41' W 074°03'0 0.0
2018-Mar-05 23:30N 40°41' W 074°03'0 0.0
2018-Mar-05 23:00N 40°41' W 074°03'0 0.0
2018-Mar-05 22:30N 40°41' W 074°03'0 0.0
2018-Mar-05 22:00N 40°41' W 074°03'0 0.0
2018-Mar-05 21:30N 40°41' W 074°03'0 0.0
2018-Mar-05 21:00N 40°41' W 074°03'0 0.0
2018-Mar-05 20:30N 40°41' W 074°03'0 0.0
2018-Mar-05 20:00N 40°41' W 074°03'0 0.0
2018-Mar-05 19:30N 40°41' W 074°03'0 0.0
2018-Mar-05 19:00N 40°41' W 074°03'0 0.0
2018-Mar-05 18:30N 40°41' W 074°03'0 0.0
2018-Mar-05 18:00N 40°41' W 074°03'0 0.0
2018-Mar-05 17:30N 40°41' W 074°03'0 0.0
2018-Mar-05 17:00N 40°41' W 074°03'0 0.0
2018-Mar-05 16:30N 40°41' W 074°03'0 0.0
2018-Mar-05 16:00N 40°41' W 074°03'0 0.0
2018-Mar-05 15:30N 40°41' W 074°03'0 0.0
2018-Mar-05 15:00N 40°41' W 074°03'0 0.0
2018-Mar-05 14:30N 40°41' W 074°03'0 0.0
2018-Mar-05 14:00N 40°41' W 074°03'0 0.0
2018-Mar-05 13:30N 40°41' W 074°03'0 0.0
2018-Mar-05 13:00N 40°41' W 074°03'0 0.0
2018-Mar-05 12:30N 40°41' W 074°03'0 0.0
2018-Mar-05 12:00N 40°41' W 074°03'0 0.0
2018-Mar-05 11:30N 40°41' W 074°03'0 0.0
2018-Mar-05 11:00N 40°41' W 074°03'0 0.0
2018-Mar-05 10:30N 40°41' W 074°03'0 0.0
2018-Mar-05 10:00N 40°41' W 074°03'0 0.0
2018-Mar-05 09:30N 40°41' W 074°03'0 0.0
2018-Mar-05 09:00N 40°41' W 074°03'0 0.0
2018-Mar-05 08:30N 40°41' W 074°03'0 0.0
2018-Mar-05 08:00N 40°41' W 074°03'0 0.0
2018-Mar-05 07:30N 40°41' W 074°03'0 0.0
2018-Mar-05 07:00N 40°41' W 074°03'0 0.0
2018-Mar-05 06:30N 40°41' W 074°03'0 0.0
2018-Mar-05 06:00N 40°41' W 074°03'0 0.0
2018-Mar-05 05:30N 40°41' W 074°03'0 0.0
2018-Mar-05 05:00N 40°41' W 074°03'0 0.0
2018-Mar-05 04:30N 40°41' W 074°03'0 0.0
2018-Mar-05 04:00N 40°41' W 074°03'0 0.0
2018-Mar-05 03:31N 40°41' W 074°03'0 0.0
2018-Mar-05 03:00N 40°41' W 074°03'0 0.0
2018-Mar-05 02:30N 40°41' W 074°03'0 0.0
2018-Mar-05 02:00N 40°41' W 074°03'0 0.0
2018-Mar-05 01:30N 40°41' W 074°03'0 0.0
2018-Mar-05 00:58N 40°41' W 074°03'0 0.0
2018-Mar-05 00:30N 40°41' W 074°03'0 0.0
2018-Mar-05 00:00N 40°41' W 074°03'0 0.0
2018-Mar-04 23:30N 40°41' W 074°03'3 5.0
2018-Mar-04 23:00N 40°42' W 074°00'4 8.1
2018-Mar-04 22:30N 40°46' W 073°57'4 7.9
2018-Mar-04 21:59N 40°48' W 073°53'4 7.2
2018-Mar-04 21:29N 40°48' W 073°48'  

Dump ship's entire track history